sensor_id;sensor_type;location;lat;lon;timestamp;P1;durP1;ratioP1;P2;durP2;ratioP2
9280;SDS011;4679;47.966;7.958;2023-07-20T06:11:20;2.03;;;1.80;;
9280;SDS011;4679;47.966;7.958;2023-07-20T06:13:22;3.20;;;1.80;;
9280;SDS011;4679;47.966;7.958;2023-07-20T06:15:25;3.10;;;2.03;;
9280;SDS011;4679;47.966;7.958;2023-07-20T06:17:28;1.90;;;1.80;;
9280;SDS011;4679;47.966;7.958;2023-07-20T06:19:29;1.70;;;1.60;;
9280;SDS011;4679;47.966;7.958;2023-07-20T06:21:31;1.87;;;1.47;;
9280;SDS011;4679;47.966;7.958;2023-07-20T06:23:33;3.17;;;1.77;;
9280;SDS011;4679;47.966;7.958;2023-07-20T06:25:33;1.60;;;1.50;;
9280;SDS011;4679;47.966;7.958;2023-07-20T06:27:36;2.17;;;1.97;;
9280;SDS011;4679;47.966;7.958;2023-07-20T06:29:38;1.40;;;1.30;;
9280;SDS011;4679;47.966;7.958;2023-07-20T06:31:40;3.07;;;1.43;;
9280;SDS011;4679;47.966;7.958;2023-07-20T06:33:41;2.60;;;1.63;;
9280;SDS011;4679;47.966;7.958;2023-07-20T06:35:43;2.20;;;1.40;;
9280;SDS011;4679;47.966;7.958;2023-07-20T06:37:44;4.17;;;1.60;;
9280;SDS011;4679;47.966;7.958;2023-07-20T06:39:46;1.97;;;1.73;;
9280;SDS011;4679;47.966;7.958;2023-07-20T06:41:48;3.13;;;1.70;;
9280;SDS011;4679;47.966;7.958;2023-07-20T06:43:51;3.57;;;1.70;;
9280;SDS011;4679;47.966;7.958;2023-07-20T06:45:58;2.40;;;1.80;;
9280;SDS011;4679;47.966;7.958;2023-07-20T06:47:59;4.23;;;1.50;;
9280;SDS011;4679;47.966;7.958;2023-07-20T06:50:01;2.23;;;1.70;;
9280;SDS011;4679;47.966;7.958;2023-07-20T06:52:03;3.00;;;1.43;;
9280;SDS011;4679;47.966;7.958;2023-07-20T06:54:05;2.97;;;2.00;;
9280;SDS011;4679;47.966;7.958;2023-07-20T06:56:06;3.47;;;1.50;;
9280;SDS011;4679;47.966;7.958;2023-07-20T06:58:08;3.00;;;1.50;;
9280;SDS011;4679;47.966;7.958;2023-07-20T07:00:11;3.77;;;1.50;;
9280;SDS011;4679;47.966;7.958;2023-07-20T07:02:13;2.50;;;1.40;;
9280;SDS011;4679;47.966;7.958;2023-07-20T07:04:15;2.90;;;1.30;;
9280;SDS011;4679;47.966;7.958;2023-07-20T07:06:17;2.17;;;1.60;;
9280;SDS011;4679;47.966;7.958;2023-07-20T07:08:18;1.50;;;1.40;;
9280;SDS011;4679;47.966;7.958;2023-07-20T07:10:20;1.50;;;1.33;;
9280;SDS011;4679;47.966;7.958;2023-07-20T07:12:22;2.97;;;1.70;;
9280;SDS011;4679;47.966;7.958;2023-07-20T07:14:23;2.20;;;1.37;;
9280;SDS011;4679;47.966;7.958;2023-07-20T07:16:25;2.03;;;1.23;;
9280;SDS011;4679;47.966;7.958;2023-07-20T07:18:27;2.93;;;1.47;;
9280;SDS011;4679;47.966;7.958;2023-07-20T07:20:29;1.90;;;1.70;;
9280;SDS011;4679;47.966;7.958;2023-07-20T07:22:30;1.97;;;1.50;;
9280;SDS011;4679;47.966;7.958;2023-07-20T07:24:32;1.77;;;1.50;;
9280;SDS011;4679;47.966;7.958;2023-07-20T07:26:34;3.47;;;1.60;;
9280;SDS011;4679;47.966;7.958;2023-07-20T07:28:36;2.03;;;1.60;;
9280;SDS011;4679;47.966;7.958;2023-07-20T07:30:38;5.53;;;1.50;;
9280;SDS011;4679;47.966;7.958;2023-07-20T07:32:41;2.53;;;1.97;;
9280;SDS011;4679;47.966;7.958;2023-07-20T07:34:43;2.07;;;1.30;;
9280;SDS011;4679;47.966;7.958;2023-07-20T07:36:46;3.30;;;1.30;;
9280;SDS011;4679;47.966;7.958;2023-07-20T07:38:47;2.40;;;1.30;;
9280;SDS011;4679;47.966;7.958;2023-07-20T07:40:49;2.20;;;1.53;;
9280;SDS011;4679;47.966;7.958;2023-07-20T07:42:49;4.30;;;1.47;;
9280;SDS011;4679;47.966;7.958;2023-07-20T07:44:51;4.50;;;1.20;;
9280;SDS011;4679;47.966;7.958;2023-07-20T07:46:53;3.13;;;1.30;;
9280;SDS011;4679;47.966;7.958;2023-07-20T07:48:56;3.77;;;1.00;;
9280;SDS011;4679;47.966;7.958;2023-07-20T07:50:57;1.30;;;1.20;;
9280;SDS011;4679;47.966;7.958;2023-07-20T07:52:59;3.73;;;1.50;;
9280;SDS011;4679;47.966;7.958;2023-07-20T07:55:01;2.80;;;1.43;;
9280;SDS011;4679;47.966;7.958;2023-07-20T07:57:04;3.47;;;1.10;;
9280;SDS011;4679;47.966;7.958;2023-07-20T07:59:06;1.47;;;1.30;;
9280;SDS011;4679;47.966;7.958;2023-07-20T08:01:08;1.70;;;1.30;;
9280;SDS011;4679;47.966;7.958;2023-07-20T08:03:09;2.40;;;1.20;;
9280;SDS011;4679;47.966;7.958;2023-07-20T08:05:12;3.00;;;1.30;;
9280;SDS011;4679;47.966;7.958;2023-07-20T08:07:14;2.73;;;1.30;;
9280;SDS011;4679;47.966;7.958;2023-07-20T08:09:16;6.13;;;1.50;;
9280;SDS011;4679;47.966;7.958;2023-07-20T08:11:18;2.67;;;1.40;;
9280;SDS011;4679;47.966;7.958;2023-07-20T08:13:19;3.83;;;1.10;;
9280;SDS011;4679;47.966;7.958;2023-07-20T08:15:20;1.17;;;1.07;;
9280;SDS011;4679;47.966;7.958;2023-07-20T08:17:22;1.30;;;1.20;;
9280;SDS011;4679;47.966;7.958;2023-07-20T08:19:23;1.80;;;1.30;;
9280;SDS011;4679;47.966;7.958;2023-07-20T08:21:27;5.43;;;1.57;;
9280;SDS011;4679;47.966;7.958;2023-07-20T08:23:28;1.63;;;1.20;;
9280;SDS011;4679;47.966;7.958;2023-07-20T08:25:30;3.43;;;1.30;;
9280;SDS011;4679;47.966;7.958;2023-07-20T08:27:32;2.60;;;1.43;;
9280;SDS011;4679;47.966;7.958;2023-07-20T08:29:33;1.40;;;1.20;;
9280;SDS011;4679;47.966;7.958;2023-07-20T08:31:35;2.87;;;1.10;;
9280;SDS011;4679;47.966;7.958;2023-07-20T08:33:36;2.67;;;1.40;;
9280;SDS011;4679;47.966;7.958;2023-07-20T08:35:38;3.33;;;1.00;;
9280;SDS011;4679;47.966;7.958;2023-07-20T08:37:41;1.33;;;1.00;;
9280;SDS011;4679;47.966;7.958;2023-07-20T08:39:42;1.95;;;1.02;;
9280;SDS011;4679;47.966;7.958;2023-07-20T08:41:44;3.28;;;1.17;;
9280;SDS011;4679;47.966;7.958;2023-07-20T08:43:47;1.30;;;1.10;;
9280;SDS011;4679;47.966;7.958;2023-07-20T08:45:49;1.58;;;1.20;;
9280;SDS011;4679;47.966;7.958;2023-07-20T08:47:55;1.15;;;1.00;;
9280;SDS011;4679;47.966;7.958;2023-07-20T08:49:59;1.23;;;0.73;;
9280;SDS011;4679;47.966;7.958;2023-07-20T08:52:06;1.15;;;1.10;;
9280;SDS011;4679;47.966;7.958;2023-07-20T08:54:10;1.52;;;1.20;;
9280;SDS011;4679;47.966;7.958;2023-07-20T08:56:14;1.20;;;1.00;;
9280;SDS011;4679;47.966;7.958;2023-07-20T08:58:18;1.00;;;0.90;;
9280;SDS011;4679;47.966;7.958;2023-07-20T09:00:21;1.40;;;0.90;;
9280;SDS011;4679;47.966;7.958;2023-07-20T09:02:24;3.28;;;0.98;;
9280;SDS011;4679;47.966;7.958;2023-07-20T09:04:28;1.52;;;0.82;;
9280;SDS011;4679;47.966;7.958;2023-07-20T09:06:28;1.20;;;0.80;;
9280;SDS011;4679;47.966;7.958;2023-07-20T09:08:30;4.45;;;1.13;;
9280;SDS011;4679;47.966;7.958;2023-07-20T09:10:34;0.80;;;0.80;;
9280;SDS011;4679;47.966;7.958;2023-07-20T09:12:35;2.30;;;1.38;;
9280;SDS011;4679;47.966;7.958;2023-07-20T09:14:37;0.93;;;0.82;;
9280;SDS011;4679;47.966;7.958;2023-07-20T09:16:47;2.42;;;1.67;;
9280;SDS011;4679;47.966;7.958;2023-07-20T09:18:50;2.38;;;1.00;;
9280;SDS011;4679;47.966;7.958;2023-07-20T09:20:51;0.77;;;0.77;;
9280;SDS011;4679;47.966;7.958;2023-07-20T09:22:54;0.88;;;0.88;;
9280;SDS011;4679;47.966;7.958;2023-07-20T09:24:55;2.05;;;1.00;;
9280;SDS011;4679;47.966;7.958;2023-07-20T09:26:59;4.30;;;1.00;;
9280;SDS011;4679;47.966;7.958;2023-07-20T09:29:04;1.80;;;1.30;;
9280;SDS011;4679;47.966;7.958;2023-07-20T09:31:15;1.63;;;1.00;;
9280;SDS011;4679;47.966;7.958;2023-07-20T09:33:21;0.95;;;0.80;;
9280;SDS011;4679;47.966;7.958;2023-07-20T09:35:23;2.28;;;0.90;;
9280;SDS011;4679;47.966;7.958;2023-07-20T09:37:25;1.25;;;0.88;;
9280;SDS011;4679;47.966;7.958;2023-07-20T09:39:27;2.60;;;1.00;;
9280;SDS011;4679;47.966;7.958;2023-07-20T09:41:30;3.70;;;1.30;;
9280;SDS011;4679;47.966;7.958;2023-07-20T09:43:42;1.85;;;0.90;;
9280;SDS011;4679;47.966;7.958;2023-07-20T09:45:44;2.17;;;0.75;;
9280;SDS011;4679;47.966;7.958;2023-07-20T09:47:45;4.45;;;0.80;;
9280;SDS011;4679;47.966;7.958;2023-07-20T09:49:47;13.77;;;2.33;;
9280;SDS011;4679;47.966;7.958;2023-07-20T09:51:49;0.90;;;0.90;;
9280;SDS011;4679;47.966;7.958;2023-07-20T09:53:52;3.65;;;1.08;;
9280;SDS011;4679;47.966;7.958;2023-07-20T09:55:54;1.50;;;0.80;;
9280;SDS011;4679;47.966;7.958;2023-07-20T09:57:56;2.00;;;0.95;;
9280;SDS011;4679;47.966;7.958;2023-07-20T09:59:59;2.15;;;1.10;;
9280;SDS011;4679;47.966;7.958;2023-07-20T10:02:00;1.63;;;0.98;;
9280;SDS011;4679;47.966;7.958;2023-07-20T10:04:07;2.33;;;1.02;;
9280;SDS011;4679;47.966;7.958;2023-07-20T10:06:12;1.20;;;0.90;;
9280;SDS011;4679;47.966;7.958;2023-07-20T10:08:16;1.58;;;0.90;;
9280;SDS011;4679;47.966;7.958;2023-07-20T10:10:20;1.00;;;0.80;;
9280;SDS011;4679;47.966;7.958;2023-07-20T10:12:21;2.55;;;0.90;;
9280;SDS011;4679;47.966;7.958;2023-07-20T10:14:24;2.30;;;1.00;;
9280;SDS011;4679;47.966;7.958;2023-07-20T10:16:34;1.38;;;0.90;;
9280;SDS011;4679;47.966;7.958;2023-07-20T10:18:38;1.58;;;0.88;;
9280;SDS011;4679;47.966;7.958;2023-07-20T10:20:48;2.90;;;0.90;;
9280;SDS011;4679;47.966;7.958;2023-07-20T10:22:53;2.60;;;1.00;;
9280;SDS011;4679;47.966;7.958;2023-07-20T10:24:55;3.85;;;0.88;;
9280;SDS011;4679;47.966;7.958;2023-07-20T10:26:58;1.02;;;0.90;;
9280;SDS011;4679;47.966;7.958;2023-07-20T10:29:02;1.42;;;0.82;;
9280;SDS011;4679;47.966;7.958;2023-07-20T10:31:07;1.70;;;0.80;;
9280;SDS011;4679;47.966;7.958;2023-07-20T10:33:11;2.28;;;0.95;;
9280;SDS011;4679;47.966;7.958;2023-07-20T10:35:12;3.17;;;0.90;;
9280;SDS011;4679;47.966;7.958;2023-07-20T10:37:22;2.28;;;1.00;;
9280;SDS011;4679;47.966;7.958;2023-07-20T10:39:51;2.17;;;1.23;;
9280;SDS011;4679;47.966;7.958;2023-07-20T10:42:00;1.70;;;0.90;;
9280;SDS011;4679;47.966;7.958;2023-07-20T10:44:03;0.90;;;0.90;;
9280;SDS011;4679;47.966;7.958;2023-07-20T10:46:05;1.40;;;0.80;;
9280;SDS011;4679;47.966;7.958;2023-07-20T10:48:16;1.75;;;0.88;;
9280;SDS011;4679;47.966;7.958;2023-07-20T10:50:19;2.35;;;0.80;;
9280;SDS011;4679;47.966;7.958;2023-07-20T10:52:22;2.15;;;0.85;;
9280;SDS011;4679;47.966;7.958;2023-07-20T10:56:50;1.35;;;1.08;;
9280;SDS011;4679;47.966;7.958;2023-07-20T10:58:55;2.63;;;0.90;;
9280;SDS011;4679;47.966;7.958;2023-07-20T11:00:58;2.15;;;0.70;;
9280;SDS011;4679;47.966;7.958;2023-07-20T11:03:02;2.15;;;0.80;;
9280;SDS011;4679;47.966;7.958;2023-07-20T11:05:05;3.05;;;0.88;;
9280;SDS011;4679;47.966;7.958;2023-07-20T11:07:14;1.73;;;1.00;;
9280;SDS011;4679;47.966;7.958;2023-07-20T11:09:17;0.82;;;0.82;;
9280;SDS011;4679;47.966;7.958;2023-07-20T11:11:22;0.95;;;0.90;;
9280;SDS011;4679;47.966;7.958;2023-07-20T11:13:23;1.48;;;0.80;;
9280;SDS011;4679;47.966;7.958;2023-07-20T11:15:26;1.23;;;1.00;;
9280;SDS011;4679;47.966;7.958;2023-07-20T11:17:28;2.17;;;0.80;;
9280;SDS011;4679;47.966;7.958;2023-07-20T11:19:31;1.25;;;0.90;;
9280;SDS011;4679;47.966;7.958;2023-07-20T11:21:37;0.70;;;0.70;;
9280;SDS011;4679;47.966;7.958;2023-07-20T11:23:41;1.10;;;0.80;;
9280;SDS011;4679;47.966;7.958;2023-07-20T11:25:45;1.90;;;1.00;;
9280;SDS011;4679;47.966;7.958;2023-07-20T11:27:47;1.75;;;1.05;;
9280;SDS011;4679;47.966;7.958;2023-07-20T11:29:49;2.20;;;0.90;;
9280;SDS011;4679;47.966;7.958;2023-07-20T11:31:51;0.90;;;0.90;;
9280;SDS011;4679;47.966;7.958;2023-07-20T11:33:53;0.85;;;0.82;;
9280;SDS011;4679;47.966;7.958;2023-07-20T11:35:54;2.47;;;0.90;;
9280;SDS011;4679;47.966;7.958;2023-07-20T11:37:57;0.75;;;0.75;;
9280;SDS011;4679;47.966;7.958;2023-07-20T11:39:59;0.80;;;0.80;;
9280;SDS011;4679;47.966;7.958;2023-07-20T11:42:01;3.70;;;1.08;;
9280;SDS011;4679;47.966;7.958;2023-07-20T11:44:03;1.65;;;0.90;;
9280;SDS011;4679;47.966;7.958;2023-07-20T11:46:06;0.65;;;0.65;;
9280;SDS011;4679;47.966;7.958;2023-07-20T11:48:13;1.38;;;1.02;;
9280;SDS011;4679;47.966;7.958;2023-07-20T11:50:16;1.30;;;0.90;;
9280;SDS011;4679;47.966;7.958;2023-07-20T11:52:17;0.88;;;0.80;;
9280;SDS011;4679;47.966;7.958;2023-07-20T11:54:21;1.52;;;0.98;;
9280;SDS011;4679;47.966;7.958;2023-07-20T11:56:23;1.67;;;0.90;;
9280;SDS011;4679;47.966;7.958;2023-07-20T11:58:27;1.00;;;0.90;;
9280;SDS011;4679;47.966;7.958;2023-07-20T12:00:29;1.50;;;0.90;;
9280;SDS011;4679;47.966;7.958;2023-07-20T12:02:30;1.63;;;1.02;;
9280;SDS011;4679;47.966;7.958;2023-07-20T12:04:32;1.73;;;0.90;;
9280;SDS011;4679;47.966;7.958;2023-07-20T12:06:35;0.93;;;0.70;;
9280;SDS011;4679;47.966;7.958;2023-07-20T12:08:37;1.42;;;0.90;;
9280;SDS011;4679;47.966;7.958;2023-07-20T12:10:42;3.28;;;0.80;;
9280;SDS011;4679;47.966;7.958;2023-07-20T12:12:44;1.60;;;0.80;;
9280;SDS011;4679;47.966;7.958;2023-07-20T12:14:46;2.92;;;0.77;;
9280;SDS011;4679;47.966;7.958;2023-07-20T12:16:52;1.88;;;0.95;;
9280;SDS011;4679;47.966;7.958;2023-07-20T12:19:00;2.80;;;0.90;;
9280;SDS011;4679;47.966;7.958;2023-07-20T12:21:02;1.17;;;0.80;;
9280;SDS011;4679;47.966;7.958;2023-07-20T12:23:05;1.40;;;0.98;;
9280;SDS011;4679;47.966;7.958;2023-07-20T12:25:10;1.00;;;0.90;;
9280;SDS011;4679;47.966;7.958;2023-07-20T12:27:14;0.80;;;0.73;;
9280;SDS011;4679;47.966;7.958;2023-07-20T12:29:17;2.35;;;0.80;;
9280;SDS011;4679;47.966;7.958;2023-07-20T12:31:19;0.98;;;0.80;;
9280;SDS011;4679;47.966;7.958;2023-07-20T12:33:21;1.52;;;0.73;;
9280;SDS011;4679;47.966;7.958;2023-07-20T12:35:23;0.70;;;0.70;;
9280;SDS011;4679;47.966;7.958;2023-07-20T12:37:25;0.90;;;0.80;;
9280;SDS011;4679;47.966;7.958;2023-07-20T12:39:26;2.10;;;1.10;;
9280;SDS011;4679;47.966;7.958;2023-07-20T12:41:28;1.20;;;1.10;;
9280;SDS011;4679;47.966;7.958;2023-07-20T12:43:31;0.93;;;0.90;;
9280;SDS011;4679;47.966;7.958;2023-07-20T12:45:33;1.85;;;0.70;;
9280;SDS011;4679;47.966;7.958;2023-07-20T12:47:34;0.77;;;0.77;;
9280;SDS011;4679;47.966;7.958;2023-07-20T12:49:36;1.20;;;1.10;;
9280;SDS011;4679;47.966;7.958;2023-07-20T12:51:38;2.58;;;0.90;;
9280;SDS011;4679;47.966;7.958;2023-07-20T12:53:39;1.17;;;0.60;;
9280;SDS011;4679;47.966;7.958;2023-07-20T12:55:41;1.75;;;0.80;;
9280;SDS011;4679;47.966;7.958;2023-07-20T12:57:43;0.80;;;0.80;;
9280;SDS011;4679;47.966;7.958;2023-07-20T12:59:46;0.70;;;0.70;;
9280;SDS011;4679;47.966;7.958;2023-07-20T13:01:47;2.25;;;0.88;;
9280;SDS011;4679;47.966;7.958;2023-07-20T13:03:48;1.23;;;0.90;;
9280;SDS011;4679;47.966;7.958;2023-07-20T13:05:50;1.70;;;1.00;;
9280;SDS011;4679;47.966;7.958;2023-07-20T13:07:52;0.93;;;0.82;;
9280;SDS011;4679;47.966;7.958;2023-07-20T13:09:53;0.70;;;0.70;;
9280;SDS011;4679;47.966;7.958;2023-07-20T13:11:55;2.05;;;0.90;;
9280;SDS011;4679;47.966;7.958;2023-07-20T13:13:57;1.08;;;1.00;;
9280;SDS011;4679;47.966;7.958;2023-07-20T13:16:00;1.00;;;0.90;;
9280;SDS011;4679;47.966;7.958;2023-07-20T13:18:01;0.90;;;0.70;;
9280;SDS011;4679;47.966;7.958;2023-07-20T13:20:04;1.10;;;0.88;;
9280;SDS011;4679;47.966;7.958;2023-07-20T13:22:08;2.63;;;0.70;;
9280;SDS011;4679;47.966;7.958;2023-07-20T13:24:09;1.35;;;0.65;;
9280;SDS011;4679;47.966;7.958;2023-07-20T13:26:11;0.98;;;0.70;;
9280;SDS011;4679;47.966;7.958;2023-07-20T13:28:13;0.85;;;0.75;;
9280;SDS011;4679;47.966;7.958;2023-07-20T13:30:14;1.58;;;0.80;;
9280;SDS011;4679;47.966;7.958;2023-07-20T13:32:19;2.65;;;0.98;;
9280;SDS011;4679;47.966;7.958;2023-07-20T13:34:21;1.00;;;0.88;;
9280;SDS011;4679;47.966;7.958;2023-07-20T13:36:22;1.20;;;0.95;;
9280;SDS011;4679;47.966;7.958;2023-07-20T13:38:24;0.93;;;0.90;;
9280;SDS011;4679;47.966;7.958;2023-07-20T13:40:26;1.00;;;0.80;;
9280;SDS011;4679;47.966;7.958;2023-07-20T13:42:27;1.42;;;1.05;;
9280;SDS011;4679;47.966;7.958;2023-07-20T13:44:29;0.77;;;0.77;;
9280;SDS011;4679;47.966;7.958;2023-07-20T13:46:30;1.75;;;0.90;;
9280;SDS011;4679;47.966;7.958;2023-07-20T13:48:33;0.90;;;0.80;;
9280;SDS011;4679;47.966;7.958;2023-07-20T13:50:34;1.20;;;1.02;;
9280;SDS011;4679;47.966;7.958;2023-07-20T13:52:36;1.00;;;0.90;;
9280;SDS011;4679;47.966;7.958;2023-07-20T13:54:38;1.88;;;0.90;;
9280;SDS011;4679;47.966;7.958;2023-07-20T13:56:39;0.90;;;0.75;;
9280;SDS011;4679;47.966;7.958;2023-07-20T13:58:41;0.85;;;0.70;;
9280;SDS011;4679;47.966;7.958;2023-07-20T14:00:43;1.70;;;0.82;;
9280;SDS011;4679;47.966;7.958;2023-07-20T14:02:45;1.73;;;0.90;;
9280;SDS011;4679;47.966;7.958;2023-07-20T14:04:47;4.03;;;1.08;;
9280;SDS011;4679;47.966;7.958;2023-07-20T14:06:49;1.17;;;0.80;;
9280;SDS011;4679;47.966;7.958;2023-07-20T14:08:51;1.23;;;0.88;;
9280;SDS011;4679;47.966;7.958;2023-07-20T14:10:53;1.00;;;0.80;;
9280;SDS011;4679;47.966;7.958;2023-07-20T14:12:54;1.50;;;0.85;;
9280;SDS011;4679;47.966;7.958;2023-07-20T14:14:56;1.17;;;0.80;;
9280;SDS011;4679;47.966;7.958;2023-07-20T14:16:58;2.20;;;0.90;;
9280;SDS011;4679;47.966;7.958;2023-07-20T14:18:59;1.08;;;0.70;;
9280;SDS011;4679;47.966;7.958;2023-07-20T14:21:02;1.80;;;0.80;;
9280;SDS011;4679;47.966;7.958;2023-07-20T14:23:05;2.35;;;1.00;;
9280;SDS011;4679;47.966;7.958;2023-07-20T14:25:07;0.73;;;0.73;;
9280;SDS011;4679;47.966;7.958;2023-07-20T14:27:08;3.13;;;0.90;;
9280;SDS011;4679;47.966;7.958;2023-07-20T14:29:11;1.25;;;0.90;;
9280;SDS011;4679;47.966;7.958;2023-07-20T14:31:12;0.80;;;0.80;;
9280;SDS011;4679;47.966;7.958;2023-07-20T14:33:14;1.63;;;0.90;;
9280;SDS011;4679;47.966;7.958;2023-07-20T14:35:16;1.17;;;1.00;;
9280;SDS011;4679;47.966;7.958;2023-07-20T14:37:19;0.70;;;0.70;;
9280;SDS011;4679;47.966;7.958;2023-07-20T14:39:21;1.00;;;0.90;;
9280;SDS011;4679;47.966;7.958;2023-07-20T14:41:22;3.08;;;1.00;;
9280;SDS011;4679;47.966;7.958;2023-07-20T14:43:24;0.85;;;0.82;;
9280;SDS011;4679;47.966;7.958;2023-07-20T14:45:26;1.00;;;0.90;;
9280;SDS011;4679;47.966;7.958;2023-07-20T14:47:28;1.73;;;0.82;;
9280;SDS011;4679;47.966;7.958;2023-07-20T14:49:32;1.25;;;0.80;;
9280;SDS011;4679;47.966;7.958;2023-07-20T14:51:33;3.40;;;0.90;;
9280;SDS011;4679;47.966;7.958;2023-07-20T14:53:37;1.15;;;1.02;;
9280;SDS011;4679;47.966;7.958;2023-07-20T14:55:39;1.20;;;1.10;;
9280;SDS011;4679;47.966;7.958;2023-07-20T14:57:41;0.98;;;0.82;;
9280;SDS011;4679;47.966;7.958;2023-07-20T14:59:42;1.58;;;0.88;;
9280;SDS011;4679;47.966;7.958;2023-07-20T15:01:44;2.15;;;1.02;;
9280;SDS011;4679;47.966;7.958;2023-07-20T15:03:46;2.05;;;0.80;;
9280;SDS011;4679;47.966;7.958;2023-07-20T15:05:50;1.65;;;0.70;;
9280;SDS011;4679;47.966;7.958;2023-07-20T15:07:52;1.00;;;0.85;;
9280;SDS011;4679;47.966;7.958;2023-07-20T15:09:55;3.30;;;1.42;;
9280;SDS011;4679;47.966;7.958;2023-07-20T15:11:57;1.90;;;0.85;;
9280;SDS011;4679;47.966;7.958;2023-07-20T15:13:59;1.08;;;0.80;;
9280;SDS011;4679;47.966;7.958;2023-07-20T15:16:00;0.90;;;0.90;;
9280;SDS011;4679;47.966;7.958;2023-07-20T15:18:02;0.88;;;0.88;;
9280;SDS011;4679;47.966;7.958;2023-07-20T15:20:04;1.33;;;0.73;;
9280;SDS011;4679;47.966;7.958;2023-07-20T15:22:07;1.63;;;0.98;;
9280;SDS011;4679;47.966;7.958;2023-07-20T15:24:09;2.10;;;0.90;;
9280;SDS011;4679;47.966;7.958;2023-07-20T15:26:12;1.08;;;0.88;;
9280;SDS011;4679;47.966;7.958;2023-07-20T15:28:15;2.17;;;0.85;;
9280;SDS011;4679;47.966;7.958;2023-07-20T15:30:16;1.35;;;0.80;;
9280;SDS011;4679;47.966;7.958;2023-07-20T15:32:18;2.35;;;0.80;;
9280;SDS011;4679;47.966;7.958;2023-07-20T15:34:20;1.13;;;0.90;;
9280;SDS011;4679;47.966;7.958;2023-07-20T15:36:22;1.02;;;0.90;;
9280;SDS011;4679;47.966;7.958;2023-07-20T15:38:24;3.08;;;0.88;;
9280;SDS011;4679;47.966;7.958;2023-07-20T15:40:26;1.58;;;0.82;;
9280;SDS011;4679;47.966;7.958;2023-07-20T15:42:29;1.00;;;0.80;;
9280;SDS011;4679;47.966;7.958;2023-07-20T15:44:31;1.13;;;0.75;;
9280;SDS011;4679;47.966;7.958;2023-07-20T15:46:46;0.70;;;0.70;;
9280;SDS011;4679;47.966;7.958;2023-07-20T15:48:48;1.40;;;0.98;;
9280;SDS011;4679;47.966;7.958;2023-07-20T15:50:50;1.25;;;1.00;;
9280;SDS011;4679;47.966;7.958;2023-07-20T15:52:52;0.70;;;0.70;;
9280;SDS011;4679;47.966;7.958;2023-07-20T15:54:53;0.90;;;0.90;;
9280;SDS011;4679;47.966;7.958;2023-07-20T15:56:56;1.50;;;0.80;;
9280;SDS011;4679;47.966;7.958;2023-07-20T15:58:59;2.20;;;1.60;;
9280;SDS011;4679;47.966;7.958;2023-07-20T16:01:00;1.42;;;0.70;;
9280;SDS011;4679;47.966;7.958;2023-07-20T16:03:02;1.63;;;1.00;;
9280;SDS011;4679;47.966;7.958;2023-07-20T16:05:05;0.70;;;0.70;;
9280;SDS011;4679;47.966;7.958;2023-07-20T16:07:07;3.28;;;0.80;;
9280;SDS011;4679;47.966;7.958;2023-07-20T16:09:09;1.23;;;0.70;;
9280;SDS011;4679;47.966;7.958;2023-07-20T16:11:09;1.23;;;1.00;;
9280;SDS011;4679;47.966;7.958;2023-07-20T16:13:11;2.08;;;1.00;;
9280;SDS011;4679;47.966;7.958;2023-07-20T16:15:14;2.08;;;0.80;;
9280;SDS011;4679;47.966;7.958;2023-07-20T16:17:16;0.80;;;0.80;;
9280;SDS011;4679;47.966;7.958;2023-07-20T16:19:18;1.75;;;0.70;;
9280;SDS011;4679;47.966;7.958;2023-07-20T16:21:20;2.38;;;0.95;;
9280;SDS011;4679;47.966;7.958;2023-07-20T16:23:21;1.77;;;1.00;;
9280;SDS011;4679;47.966;7.958;2023-07-20T16:25:23;1.08;;;0.90;;
9280;SDS011;4679;47.966;7.958;2023-07-20T16:27:24;2.15;;;0.90;;
9280;SDS011;4679;47.966;7.958;2023-07-20T16:29:26;0.77;;;0.70;;
9280;SDS011;4679;47.966;7.958;2023-07-20T16:31:29;1.23;;;1.00;;
9280;SDS011;4679;47.966;7.958;2023-07-20T16:33:31;1.38;;;0.80;;
9280;SDS011;4679;47.966;7.958;2023-07-20T16:35:35;1.65;;;0.85;;
9280;SDS011;4679;47.966;7.958;2023-07-20T16:37:37;1.55;;;0.80;;
9280;SDS011;4679;47.966;7.958;2023-07-20T16:39:39;1.05;;;0.93;;
9280;SDS011;4679;47.966;7.958;2023-07-20T16:41:41;1.55;;;0.80;;
9280;SDS011;4679;47.966;7.958;2023-07-20T16:43:43;1.48;;;0.90;;
9280;SDS011;4679;47.966;7.958;2023-07-20T16:45:44;3.50;;;0.70;;
9280;SDS011;4679;47.966;7.958;2023-07-20T16:47:47;0.80;;;0.80;;
9280;SDS011;4679;47.966;7.958;2023-07-20T16:49:49;0.80;;;0.80;;
9280;SDS011;4679;47.966;7.958;2023-07-20T16:51:51;1.60;;;0.80;;
9280;SDS011;4679;47.966;7.958;2023-07-20T16:53:53;1.35;;;0.75;;
9280;SDS011;4679;47.966;7.958;2023-07-20T16:55:54;1.55;;;0.80;;
9280;SDS011;4679;47.966;7.958;2023-07-20T16:57:56;1.20;;;0.90;;
9280;SDS011;4679;47.966;7.958;2023-07-20T16:59:58;0.82;;;0.82;;
9280;SDS011;4679;47.966;7.958;2023-07-20T17:01:59;1.60;;;0.85;;
9280;SDS011;4679;47.966;7.958;2023-07-20T17:04:03;0.82;;;0.77;;
9280;SDS011;4679;47.966;7.958;2023-07-20T17:06:04;1.20;;;0.80;;
9280;SDS011;4679;47.966;7.958;2023-07-20T17:08:07;1.35;;;0.80;;
9280;SDS011;4679;47.966;7.958;2023-07-20T17:10:09;1.40;;;1.15;;
9280;SDS011;4679;47.966;7.958;2023-07-20T17:12:11;1.42;;;0.85;;
9280;SDS011;4679;47.966;7.958;2023-07-20T17:14:12;2.58;;;0.90;;
9280;SDS011;4679;47.966;7.958;2023-07-20T17:16:14;1.27;;;0.90;;
9280;SDS011;4679;47.966;7.958;2023-07-20T17:18:16;1.83;;;0.75;;
9280;SDS011;4679;47.966;7.958;2023-07-20T17:20:20;1.50;;;0.80;;
9280;SDS011;4679;47.966;7.958;2023-07-20T17:22:21;1.08;;;1.00;;
9280;SDS011;4679;47.966;7.958;2023-07-20T17:24:23;0.68;;;0.68;;
9280;SDS011;4679;47.966;7.958;2023-07-20T17:26:25;1.08;;;0.70;;
9280;SDS011;4679;47.966;7.958;2023-07-20T17:28:26;2.38;;;0.88;;
9280;SDS011;4679;47.966;7.958;2023-07-20T17:30:28;0.90;;;0.90;;
9280;SDS011;4679;47.966;7.958;2023-07-20T17:32:30;1.05;;;0.70;;
9280;SDS011;4679;47.966;7.958;2023-07-20T17:34:31;1.10;;;0.90;;
9280;SDS011;4679;47.966;7.958;2023-07-20T17:36:34;2.92;;;0.80;;
9280;SDS011;4679;47.966;7.958;2023-07-20T17:38:36;0.60;;;0.60;;
9280;SDS011;4679;47.966;7.958;2023-07-20T17:40:37;0.80;;;0.80;;
9280;SDS011;4679;47.966;7.958;2023-07-20T17:42:39;0.80;;;0.77;;
9280;SDS011;4679;47.966;7.958;2023-07-20T17:44:40;2.05;;;0.90;;
9280;SDS011;4679;47.966;7.958;2023-07-20T17:46:42;3.25;;;0.77;;
9280;SDS011;4679;47.966;7.958;2023-07-20T17:48:45;1.88;;;1.08;;
9280;SDS011;4679;47.966;7.958;2023-07-20T17:50:47;1.10;;;0.70;;
9280;SDS011;4679;47.966;7.958;2023-07-20T17:52:50;0.70;;;0.68;;
9280;SDS011;4679;47.966;7.958;2023-07-20T17:54:52;0.82;;;0.82;;
9280;SDS011;4679;47.966;7.958;2023-07-20T17:56:52;0.80;;;0.80;;
9280;SDS011;4679;47.966;7.958;2023-07-20T17:58:54;0.90;;;0.63;;
9280;SDS011;4679;47.966;7.958;2023-07-20T18:00:57;1.35;;;0.90;;
9280;SDS011;4679;47.966;7.958;2023-07-20T18:02:59;1.23;;;0.90;;
9280;SDS011;4679;47.966;7.958;2023-07-20T18:05:01;1.08;;;0.77;;
9280;SDS011;4679;47.966;7.958;2023-07-20T18:07:02;0.70;;;0.70;;
9280;SDS011;4679;47.966;7.958;2023-07-20T18:09:05;1.00;;;0.90;;
9280;SDS011;4679;47.966;7.958;2023-07-20T18:11:07;3.15;;;0.90;;
9280;SDS011;4679;47.966;7.958;2023-07-20T18:13:09;1.20;;;0.90;;
9280;SDS011;4679;47.966;7.958;2023-07-20T18:15:11;1.88;;;1.00;;
9280;SDS011;4679;47.966;7.958;2023-07-20T18:17:13;1.20;;;0.70;;
9280;SDS011;4679;47.966;7.958;2023-07-20T18:19:15;2.85;;;0.80;;
9280;SDS011;4679;47.966;7.958;2023-07-20T18:21:16;1.48;;;0.90;;
9280;SDS011;4679;47.966;7.958;2023-07-20T18:23:18;1.55;;;0.95;;
9280;SDS011;4679;47.966;7.958;2023-07-20T18:25:21;4.07;;;0.93;;
9280;SDS011;4679;47.966;7.958;2023-07-20T18:27:23;3.15;;;0.80;;
9280;SDS011;4679;47.966;7.958;2023-07-20T18:29:23;1.20;;;0.70;;
9280;SDS011;4679;47.966;7.958;2023-07-20T18:31:25;1.88;;;0.70;;
9280;SDS011;4679;47.966;7.958;2023-07-20T18:33:27;1.65;;;0.90;;
9280;SDS011;4679;47.966;7.958;2023-07-20T18:35:29;1.20;;;0.80;;
9280;SDS011;4679;47.966;7.958;2023-07-20T18:37:30;2.10;;;1.05;;
9280;SDS011;4679;47.966;7.958;2023-07-20T18:39:31;1.10;;;1.10;;
9280;SDS011;4679;47.966;7.958;2023-07-20T18:41:34;1.70;;;1.10;;
9280;SDS011;4679;47.966;7.958;2023-07-20T18:43:36;1.73;;;1.10;;
9280;SDS011;4679;47.966;7.958;2023-07-20T18:45:37;1.33;;;0.70;;
9280;SDS011;4679;47.966;7.958;2023-07-20T18:47:40;1.73;;;0.90;;
9280;SDS011;4679;47.966;7.958;2023-07-20T18:49:44;2.75;;;0.85;;
9280;SDS011;4679;47.966;7.958;2023-07-20T18:51:45;1.65;;;0.90;;
9280;SDS011;4679;47.966;7.958;2023-07-20T18:53:49;3.08;;;0.90;;